Flight Track Log - Related Links

Times and Time Zones

All times are in EDT time to prevent confusion due to time zone crossing. See the N493S flight status page for this flight to view local times or setup timezone preferences in your user account.

Time Position Orientation Groundspeed Altitude Reporting Facility
EDT Latitude Longitude Course Direction KTS MPH feet Rate Location/Type
Wed 06:31:57 PM 42.4667 -71.2667 56° Northeast 212 244 900  Level KA90
Wed 06:32:21 PM 42.4833 -71.2333 56° Northeast 206 237 1,600 1,786 Climbing KA90
Wed 06:33:21 PM 42.5333 -71.1667 44° Northeast 281 323 3,400 2,266 Climbing KA90
Wed 06:34:44 PM 42.6278 -71.0911 30° Northeast 310 357 7,000 2,685 Climbing Boston Center
Wed 06:35:44 PM 42.7008 -71.0897 North 283 326 9,800 3,200 Climbing Boston Center
Wed 06:36:44 PM 42.7456 -71.1706 307° West 238 274 13,400 3,200 Climbing Boston Center
Wed 06:37:44 PM 42.7919 -71.2347 315° West 246 283 16,200 2,700 Climbing Boston Center
Wed 06:38:44 PM 42.8386 -71.3019 313° West 246 283 18,800 2,100 Climbing Boston Center
Wed 06:39:44 PM 42.8914 -71.3775 314° West 252 290 20,400 1,500 Climbing Boston Center
Wed 06:40:44 PM 42.9464 -71.4531 315° West 287 330 21,800 1,400 Climbing Boston Center
Wed 06:41:44 PM 43.0158 -71.5542 313° West 322 371 23,200 1,400 Climbing Boston Center
Wed 06:42:44 PM 43.0833 -71.6611 311° West 346 398 24,600 1,350 Climbing Boston Center
Wed 06:43:44 PM 43.1028 -71.7719 284° West 354 407 25,900 1,650 Climbing Boston Center
Wed 06:44:44 PM 43.1286 -71.9422 282° West 374 430 27,900 1,750 Climbing Boston Center
Wed 06:45:44 PM 43.1542 -72.0844 284° West 380 437 29,400 1,450 Climbing Boston Center
Wed 06:46:44 PM 43.1775 -72.2294 282° West 391 450 30,800 1,400 Climbing Boston Center
Wed 06:47:44 PM 43.2006 -72.3747 282° West 396 456 32,200 1,400 Climbing Boston Center
Wed 06:48:44 PM 43.2172 -72.5114 280° West 396 456 33,600 1,450 Climbing Boston Center
Wed 06:49:44 PM 43.2192 -72.6622 271° West 396 456 35,100 1,400 Climbing Boston Center
Wed 06:50:44 PM 43.2208 -72.8106 271° West 396 456 36,400 1,250 Climbing Boston Center
Wed 06:51:44 PM 43.2203 -72.9586 270° West 396 456 37,600 1,200 Climbing Boston Center
Wed 06:52:44 PM 43.2197 -73.1011 270° West 391 450 38,800 1,000 Climbing Boston Center
Wed 06:53:44 PM 43.2167 -73.2436 268° West 380 437 39,600 600 Climbing Boston Center
Wed 06:54:44 PM 43.2133 -73.3944 268° West 374 430 40,000 200 Climbing Boston Center
Wed 06:55:44 PM 43.2122 -73.5369 269° West 374 430 40,000  Level Boston Center
Wed 06:56:44 PM 43.2106 -73.6850 269° West 374 430 40,000  Level Boston Center
Wed 06:57:44 PM 43.2092 -73.8131 269° West 380 437 40,000 -50 Level Boston Center
Wed 06:58:44 PM 43.2072 -73.9583 269° West 380 437 39,900  Descending Boston Center
Wed 06:59:56 PM 43.2053 -74.1036 269° West 380 437 40,000 45 Climbing Boston Center
Wed 07:00:56 PM 43.2025 -74.2831 269° West 380 437 40,000  Level Boston Center
Wed 07:01:56 PM 43.2022 -74.4283 270° West 380 437 40,000  Level Boston Center
Wed 07:02:56 PM 43.1994 -74.5764 269° West 385 443 40,000  Level Boston Center
Wed 07:03:56 PM 43.1967 -74.7214 269° West 385 443 40,000  Level Boston Center
Wed 07:04:56 PM 43.1936 -74.8667 268° West 385 443 40,000  Level Boston Center
Wed 07:05:56 PM 43.1903 -75.0144 268° West 385 443 40,000  Level Boston Center
Wed 07:06:56 PM 43.1850 -75.1567 267° West 385 443 40,000  Level Boston Center
Wed 07:07:56 PM 43.1814 -75.3019 268° West 385 443 40,000  Level Boston Center
Wed 07:08:56 PM 43.1797 -75.4497 269° West 385 443 40,000  Level Boston Center
Wed 07:09:56 PM 43.1775 -75.6092 269° West 385 443 40,000  Level Boston Center
Wed 07:10:56 PM 43.1736 -75.7514 268° West 380 437 40,000  Level Boston Center
Wed 07:12:29 PM 43.1500 -75.9333 260° West 380 437 40,000  Level Toronto Center
Wed 07:13:09 PM 43.1636 -76.0569 279° West 369 425 40,000  Level Cleveland Center
Wed 07:14:09 PM 43.1717 -76.2103 274° West 374 430 40,000  Level Cleveland Center
Wed 07:15:09 PM 43.1792 -76.3522 274° West 374 430 40,000  Level Cleveland Center
Wed 07:16:09 PM 43.1883 -76.4967 275° West 380 437 40,000  Level Cleveland Center
Wed 07:17:09 PM 43.1975 -76.6414 275° West 385 443 40,000  Level Cleveland Center
Wed 07:18:09 PM 43.2067 -76.7861 275° West 385 443 40,000  Level Cleveland Center
Wed 07:19:09 PM 43.2153 -76.9281 275° West 385 443 40,000  Level Cleveland Center
Wed 07:20:09 PM 43.2214 -77.0589 274° West 385 443 40,000  Level Cleveland Center
Wed 07:21:09 PM 43.2300 -77.2039 275° West 385 443 40,000  Level Cleveland Center
Wed 07:22:09 PM 43.2383 -77.3486 275° West 385 443 40,000  Level Cleveland Center
Wed 07:23:09 PM 43.2464 -77.4936 274° West 385 443 40,000  Level Cleveland Center
Wed 07:24:09 PM 43.2542 -77.6358 274° West 385 443 40,000  Level Cleveland Center
Wed 07:25:09 PM 43.2622 -77.7836 274° West 385 443 40,000  Level Cleveland Center
Wed 07:26:09 PM 43.2675 -77.9289 273° West 385 443 40,000  Level Cleveland Center
Wed 07:27:09 PM 43.2750 -78.0739 274° West 385 443 40,000  Level Cleveland Center
Wed 07:28:09 PM 43.2822 -78.2219 274° West 385 443 40,000  Level Cleveland Center
Wed 07:29:09 PM 43.2894 -78.3672 274° West 385 443 40,000  Level Cleveland Center
Wed 07:30:09 PM 43.2961 -78.5125 274° West 385 443 40,000  Level Cleveland Center
Wed 07:31:09 PM 43.3028 -78.6606 274° West 385 443 40,000  Level Cleveland Center
Wed 07:33:29 PM 43.3000 -79.0000 269° West 390 449 40,000  Level Toronto Center
Wed 07:34:29 PM 43.3167 -79.1333 280° West 390 449 40,000  Level Toronto Center
Wed 07:35:29 PM 43.3167 -79.2833 270° West 390 449 40,000  Level Toronto Center
Wed 07:36:29 PM 43.3167 -79.4333 270° West 390 449 40,000  Level Toronto Center
Wed 07:37:29 PM 43.3333 -79.5833 279° West 390 449 40,000  Level Toronto Center
Wed 07:38:29 PM 43.3333 -79.7167 270° West 390 449 40,000  Level Toronto Center
Wed 07:39:29 PM 43.3333 -79.8833 270° West 380 437 40,000  Level Toronto Center
Wed 07:40:29 PM 43.3333 -80.0167 270° West 380 437 40,000  Level Toronto Center
Wed 07:41:29 PM 43.3500 -80.1667 279° West 380 437 40,000  Level Toronto Center
Wed 07:42:29 PM 43.3500 -80.3000 270° West 380 437 40,000  Level Toronto Center
Wed 07:43:29 PM 43.3500 -80.4667 270° West 380 437 40,000  Level Toronto Center
Wed 07:44:29 PM 43.3667 -80.6167 279° West 380 437 40,000  Level Toronto Center
Wed 07:45:29 PM 43.3667 -80.7500 270° West 380 437 40,000  Level Toronto Center
Wed 07:46:29 PM 43.3500 -80.9000 261° West 380 437 40,000  Level Toronto Center
Wed 07:47:29 PM 43.3667 -81.0333 280° West 380 437 40,000  Level Toronto Center
Wed 07:48:29 PM 43.3667 -81.2000 270° West 380 437 40,000  Level Toronto Center
Wed 07:49:29 PM 43.3667 -81.3333 270° West 380 437 40,000  Level Toronto Center
Wed 07:50:29 PM 43.3667 -81.4667 270° West 380 437 40,000  Level Toronto Center
Wed 07:51:29 PM 43.3833 -81.6333 278° West 380 437 40,000  Level Toronto Center
Wed 07:52:29 PM 43.3833 -81.7667 270° West 370 426 40,000  Level Toronto Center
Wed 07:53:29 PM 43.3833 -81.9000 270° West 370 426 40,000  Level Toronto Center
Wed 07:54:29 PM 43.3667 -82.0333 260° West 370 426 40,000  Level Toronto Center
Wed 07:55:09 PM 43.3917 -82.1344 289° West 379 436 40,000  Level Cleveland Center
Wed 07:56:09 PM 43.3958 -82.2831 272° West 379 436 40,000  Level Cleveland Center
Wed 07:57:09 PM 43.3958 -82.4231 270° West 379 436 40,000  Level Cleveland Center
Wed 07:58:09 PM 43.3956 -82.5658 270° West 379 436 40,000  Level Cleveland Center
Wed 07:59:09 PM 43.3972 -82.7117 271° West 384 442 40,000  Level Cleveland Center
Wed 08:00:09 PM 43.3986 -82.8517 271° West 384 442 40,000  Level Cleveland Center
Wed 08:01:09 PM 43.4000 -82.9947 271° West 384 442 40,000  Level Cleveland Center
Wed 08:02:09 PM 43.3989 -83.1375 269° West 384 442 40,000  Level Cleveland Center
Wed 08:03:09 PM 43.4019 -83.2833 272° West 384 442 40,000  Level Cleveland Center
Wed 08:04:09 PM 43.4006 -83.4289 269° West 384 442 40,000  Level Cleveland Center
Wed 08:05:09 PM 43.4011 -83.5719 270° West 384 442 40,000  Level Cleveland Center
Wed 08:06:09 PM 43.4014 -83.7178 270° West 384 442 40,000  Level Cleveland Center
Wed 08:07:09 PM 43.3994 -83.8633 269° West 384 442 40,000  Level Cleveland Center
Wed 08:08:09 PM 43.3992 -84.0178 270° West 384 442 40,000  Level Cleveland Center
Wed 08:09:09 PM 43.3989 -84.1606 270° West 384 442 40,000  Level Cleveland Center
Wed 08:10:09 PM 43.3964 -84.3061 269° West 384 442 40,000  Level Cleveland Center
Wed 08:11:32 PM 43.3969 -84.5006 270° West 381 438 40,000  Level Minneapolis Center
Wed 08:12:34 PM 43.3958 -84.6450 269° West 380 437 40,000  Level Minneapolis Center
Wed 08:13:36 PM 43.3933 -84.7900 269° West 380 437 40,000  Level Minneapolis Center
Wed 08:14:49 PM 43.3922 -84.9356 269° West 381 438 40,000  Level Minneapolis Center
Wed 08:15:52 PM 43.3892 -85.1386 269° West 381 438 40,000  Level Minneapolis Center
Wed 08:16:54 PM 43.3872 -85.2822 269° West 379 436 40,000  Level Minneapolis Center
Wed 08:17:56 PM 43.3853 -85.4269 269° West 380 437 40,000  Level Minneapolis Center
Wed 08:19:10 PM 43.3825 -85.5711 269° West 379 436 40,000  Level Minneapolis Center
Wed 08:20:24 PM 43.3797 -85.7444 269° West 381 438 40,000  Level Minneapolis Center
Wed 08:21:26 PM 43.3756 -85.9458 268° West 381 438 40,000  Level Minneapolis Center
Wed 08:21:49 PM 43.3756 -85.9733 270° West 379 436 40,000  Level Chicago Center
Wed 08:22:51 PM 43.3711 -86.1483 268° West 386 444 40,000  Level Chicago Center
Wed 08:23:53 PM 43.3675 -86.2936 268° West 385 443 40,000  Level Chicago Center
Wed 08:24:55 PM 43.3642 -86.4394 268° West 386 444 40,000  Level Chicago Center
Wed 08:25:58 PM 43.3611 -86.5858 268° West 386 444 40,000  Level Chicago Center
Wed 08:27:00 PM 43.3567 -86.7606 268° West 384 442 40,000  Level Chicago Center
Wed 08:28:02 PM 43.3519 -86.9064 268° West 385 443 40,000  Level Chicago Center
Wed 08:29:04 PM 43.3478 -87.0550 268° West 389 448 40,000  Level Chicago Center
Wed 08:30:06 PM 43.3428 -87.2017 267° West 388 447 40,000  Level Chicago Center
Wed 08:31:08 PM 43.3369 -87.3661 267° West 389 448 40,000  Level Chicago Center
Wed 08:32:10 PM 43.3308 -87.5144 267° West 387 445 40,000  Level Chicago Center
Wed 08:33:12 PM 43.3258 -87.6633 267° West 389 448 40,000  Level Chicago Center
Wed 08:34:14 PM 43.3208 -87.8128 267° West 390 449 40,000  Level Chicago Center
Wed 08:35:16 PM 43.3136 -87.9881 267° West 394 453 40,000  Level Chicago Center
Wed 08:36:18 PM 43.3075 -88.1383 267° West 392 451 40,000  Level Chicago Center
Wed 08:37:20 PM 43.3003 -88.2883 266° West 391 450 40,000  Level Chicago Center
Wed 08:38:23 PM 43.2931 -88.4400 266° West 393 452 40,000  Level Chicago Center
Wed 08:39:25 PM 43.2869 -88.5931 267° West 393 452 40,000  Level Chicago Center
Wed 08:40:27 PM 43.2800 -88.7456 266° West 395 455 40,000  Level Chicago Center
Wed 08:41:30 PM 43.2739 -88.8967 267° West 394 453 40,000  Level Chicago Center
Wed 08:42:32 PM 43.2656 -89.0722 266° West 395 455 40,000  Level Chicago Center
Wed 08:43:34 PM 43.2575 -89.2233 266° West 396 456 40,000  Level Chicago Center
Wed 08:44:36 PM 43.2508 -89.3744 267° West 397 457 40,000  Level Chicago Center
Wed 08:45:38 PM 43.2431 -89.5261 266° West 398 458 40,000  Level Chicago Center
Wed 08:46:40 PM 43.2333 -89.6778 265° West 399 459 40,000  Level Chicago Center
Wed 08:47:42 PM 43.2250 -89.8286 266° West 397 457 40,000  Level Chicago Center
Wed 08:48:44 PM 43.2158 -90.0053 266° West 399 459 40,000  Level Chicago Center
Wed 08:49:46 PM 43.2061 -90.1572 265° West 399 459 40,000  Level Chicago Center
Wed 08:50:48 PM 43.1978 -90.2906 265° West 399 459 40,000  Level Chicago Center
Wed 08:51:50 PM 43.1872 -90.4728 266° West 405 466 40,000  Level Chicago Center
Wed 08:52:52 PM 43.1781 -90.6222 265° West 401 461 40,000  Level Chicago Center
Wed 08:53:29 PM 43.1728 -90.7125 265° West 402 463 40,000  Level Minneapolis Center
Wed 08:54:31 PM 43.1636 -90.8625 265° West 401 461 40,000  Level Minneapolis Center
Wed 08:55:33 PM 43.1542 -91.0139 265° West 403 464 40,000  Level Minneapolis Center
Wed 08:56:35 PM 43.1425 -91.1956 265° West 404 465 40,000  Level Minneapolis Center
Wed 08:57:38 PM 43.1328 -91.3453 265° West 402 463 40,000 88 Level Minneapolis Center
Wed 08:58:52 PM 43.1206 -91.5281 265° West 408 470 40,200 397 Climbing Minneapolis Center
Wed 08:59:54 PM 43.1097 -91.6786 264° West 407 468 40,900 774 Climbing Minneapolis Center
Wed 09:00:56 PM 43.0956 -91.8572 264° West 403 464 41,800 677 Climbing Minneapolis Center
Wed 09:01:58 PM 43.0842 -92.0056 264° West 400 460 42,300 435 Climbing Minneapolis Center
Wed 09:03:00 PM 43.0739 -92.1519 265° West 392 451 42,700 339 Climbing Minneapolis Center
Wed 09:04:02 PM 43.0619 -92.3008 264° West 398 458 43,000 145 Climbing Minneapolis Center
Wed 09:05:04 PM 43.0483 -92.4803 264° West 402 463 43,000  Level Minneapolis Center
Wed 09:06:06 PM 43.0353 -92.6333 263° West 408 470 43,000  Level Minneapolis Center
Wed 09:07:09 PM 43.0225 -92.7856 264° West 408 470 43,000  Level Minneapolis Center
Wed 09:08:11 PM 43.0108 -92.9369 264° West 407 468 43,000  Level Minneapolis Center
Wed 09:09:13 PM 42.9956 -93.1197 264° West 407 468 43,000  Level Minneapolis Center
Wed 09:10:15 PM 42.9831 -93.2728 264° West 409 471 43,000  Level Minneapolis Center
Wed 09:11:17 PM 42.9697 -93.4258 263° West 410 472 43,000 -48 Level Minneapolis Center
Wed 09:12:19 PM 42.9569 -93.5792 264° West 410 472 42,900  Descending Minneapolis Center
Wed 09:13:21 PM 42.9431 -93.7325 263° West 411 473 43,000 48 Climbing Minneapolis Center
Wed 09:14:23 PM 42.9261 -93.9147 263° West 409 471 43,000  Level Minneapolis Center
Wed 09:15:25 PM 42.9125 -94.0683 263° West 412 474 43,000  Level Minneapolis Center
Wed 09:16:27 PM 42.8975 -94.2214 262° West 412 474 43,000  Level Minneapolis Center
Wed 09:17:29 PM 42.8806 -94.3758 262° West 415 478 43,000  Level Minneapolis Center
Wed 09:18:31 PM 42.8664 -94.5303 263° West 415 478 43,000  Level Minneapolis Center
Wed 09:19:33 PM 42.8517 -94.6942 263° West 412 474 43,000  Level Minneapolis Center
Wed 09:20:35 PM 42.8331 -94.8783 262° West 409 471 43,000  Level Minneapolis Center
Wed 09:21:36 PM 42.8175 -95.0333 262° West 412 474 43,000  Level Minneapolis Center
Wed 09:22:38 PM 42.8017 -95.1867 262° West 410 472 43,000  Level Minneapolis Center
Wed 09:23:40 PM 42.7858 -95.3400 262° West 409 471 43,000  Level Minneapolis Center
Wed 09:24:42 PM 42.7692 -95.4947 262° West 413 475 43,000  Level Minneapolis Center
Wed 09:25:44 PM 42.7528 -95.6494 262° West 413 475 43,000  Level Minneapolis Center
Wed 09:26:45 PM 42.7369 -95.8047 262° West 414 476 43,000  Level Minneapolis Center
Wed 09:27:47 PM 42.7153 -95.9906 261° West 415 478 43,000  Level Minneapolis Center
Wed 09:28:49 PM 42.6994 -96.1397 262° West 412 474 43,000  Level Minneapolis Center
Wed 09:29:50 PM 42.6825 -96.2944 262° West 415 478 43,000  Level Minneapolis Center
Wed 09:30:52 PM 42.6642 -96.4475 261° West 412 474 43,000  Level Minneapolis Center
Wed 09:31:54 PM 42.6464 -96.6031 261° West 416 479 43,000  Level Minneapolis Center
Wed 09:33:07 PM 42.6281 -96.7589 261° West 417 480 43,000  Level Minneapolis Center
Wed 09:34:09 PM 42.6058 -96.9419 261° West 414 476 43,000  Level Minneapolis Center
Wed 09:35:11 PM 42.5836 -97.1269 261° West 415 478 43,000  Level Minneapolis Center
Wed 09:36:12 PM 42.5647 -97.2831 261° West 417 480 43,000  Level Minneapolis Center
Wed 09:37:14 PM 42.5458 -97.4372 261° West 418 481 43,000  Level Minneapolis Center
Wed 09:38:15 PM 42.5267 -97.5903 260° West 413 475 43,000  Level Minneapolis Center
Wed 09:39:17 PM 42.5078 -97.7439 261° West 416 479 43,000  Level Minneapolis Center
Wed 09:40:18 PM 42.4867 -97.9014 260° West 414 476 43,000  Level Minneapolis Center
Wed 09:41:20 PM 42.4678 -98.0547 261° West 414 476 43,000  Level Minneapolis Center
Wed 09:42:21 PM 42.4475 -98.2089 260° West 416 479 43,000  Level Minneapolis Center
Wed 09:43:23 PM 42.4236 -98.3928 260° West 416 479 43,000  Level Minneapolis Center
Wed 09:44:24 PM 42.4022 -98.5461 259° West 416 479 43,000  Level Minneapolis Center
Wed 09:45:26 PM 42.3822 -98.6997 260° West 417 480 43,000  Level Minneapolis Center
Wed 09:46:27 PM 42.3614 -98.8517 260° West 413 475 43,000  Level Minneapolis Center
Wed 09:47:29 PM 42.3408 -99.0053 260° West 414 476 43,000  Level Minneapolis Center
Wed 09:48:30 PM 42.3186 -99.1586 259° West 416 479 43,000  Level Minneapolis Center
Wed 09:49:31 PM 42.3031 -99.2806 260° West 414 476 43,000  Level Minneapolis Center
Wed 09:50:33 PM 42.2767 -99.4631 259° West 414 476 43,000  Level Minneapolis Center
Wed 09:51:02 PM 42.2669 -99.5239 258° West 413 475 43,000  Level Denver Center
Wed 09:52:04 PM 42.2417 -99.7019 259° West 419 482 43,000  Level Denver Center
Wed 09:53:06 PM 42.2169 -99.8731 259° West 416 479 43,000  Level Denver Center
Wed 09:54:08 PM 42.1944 -100.0192 258° West 418 481 43,000  Level Denver Center
Wed 09:55:09 PM 42.1700 -100.1889 259° West 415 478 43,000  Level Denver Center
Wed 09:56:11 PM 42.1481 -100.3350 259° West 417 480 43,000  Level Denver Center
Wed 09:57:13 PM 42.1219 -100.5050 258° West 416 479 43,000  Level Denver Center
Wed 09:58:15 PM 42.0994 -100.6531 258° West 421 484 43,000  Level Denver Center
Wed 09:59:17 PM 42.0733 -100.8242 258° West 421 484 43,000  Level Denver Center
Wed 10:00:19 PM 42.0508 -100.9722 258° West 423 487 43,000  Level Denver Center
Wed 10:01:20 PM 42.0244 -101.1417 258° West 418 481 43,000  Level Denver Center
Wed 10:02:22 PM 42.0000 -101.2875 257° West 418 481 43,000  Level Denver Center
Wed 10:03:24 PM 41.9781 -101.4344 259° West 420 483 43,000  Level Denver Center
Wed 10:04:26 PM 41.9494 -101.6058 257° West 421 484 43,000  Level Denver Center
Wed 10:05:28 PM 41.9258 -101.7525 258° West 420 483 43,000  Level Denver Center
Wed 10:06:29 PM 41.8961 -101.9256 257° West 426 490 43,000  Level Denver Center
Wed 10:07:31 PM 41.8767 -102.0467 258° West 422 486 43,000  Level Denver Center
Wed 10:08:33 PM 41.8442 -102.2453 258° West 420 483 43,000  Level Denver Center
Wed 10:09:35 PM 41.8194 -102.3922 257° West 421 484 43,000  Level Denver Center
Wed 10:10:36 PM 41.7933 -102.5411 257° West 426 490 43,000  Level Denver Center
Wed 10:11:38 PM 41.7639 -102.7144 257° West 427 491 43,000  Level Denver Center
Wed 10:12:40 PM 41.7378 -102.8628 257° West 429 494 43,000  Level Denver Center
Wed 10:13:42 PM 41.7072 -103.0350 257° West 426 490 43,000  Level Denver Center
Wed 10:14:43 PM 41.6811 -103.1817 257° West 424 488 43,000  Level Denver Center
Wed 10:15:45 PM 41.6489 -103.3561 256° West 429 494 43,000  Level Denver Center
Wed 10:16:47 PM 41.6228 -103.5044 257° West 429 494 43,000  Level Denver Center
Wed 10:17:48 PM 41.5961 -103.6531 257° West 430 495 43,000  Level Denver Center
Wed 10:18:50 PM 41.5639 -103.8256 256° West 427 491 43,000  Level Denver Center
Wed 10:19:52 PM 41.5367 -103.9725 256° West 427 491 43,000  Level Denver Center
Wed 10:20:53 PM 41.5050 -104.1447 256° West 427 491 43,000  Level Denver Center
Wed 10:21:55 PM 41.4778 -104.2897 256° West 423 487 43,000  Level Denver Center
Wed 10:22:57 PM 41.4500 -104.4336 256° West 419 482 43,000  Level Denver Center
Wed 10:23:59 PM 41.4183 -104.6028 256° West 422 486 43,000  Level Denver Center
Wed 10:25:00 PM 41.3908 -104.7458 256° West 418 481 43,000  Level Denver Center
Wed 10:26:02 PM 41.3583 -104.9142 256° West 420 483 43,000  Level Denver Center
Wed 10:27:04 PM 41.3303 -105.0569 255° West 416 479 43,000  Level Denver Center
Wed 10:28:05 PM 41.2969 -105.2242 255° West 418 481 43,000  Level Denver Center
Wed 10:29:07 PM 41.2681 -105.3717 255° West 428 493 43,000  Level Denver Center
Wed 10:30:09 PM 41.2375 -105.5219 255° West 437 503 43,000  Level Denver Center
Wed 10:31:10 PM 41.2025 -105.6989 255° West 441 507 43,000  Level Denver Center
Wed 10:32:12 PM 41.1717 -105.8475 255° West 437 503 43,000  Level Denver Center
Wed 10:33:13 PM 41.1369 -106.0192 255° West 433 498 43,000  Level Denver Center
Wed 10:34:15 PM 41.1081 -106.1631 255° West 424 488 43,000  Level Denver Center
Wed 10:35:16 PM 41.0753 -106.3214 255° West 425 489 43,000  Level Denver Center
Wed 10:36:18 PM 41.0444 -106.4642 254° West 422 486 43,000  Level Denver Center
Wed 10:37:19 PM 41.0097 -106.6325 255° West 423 487 43,000  Level Denver Center
Wed 10:38:21 PM 40.9856 -106.7508 255° West 421 484 43,000  Level Denver Center
Wed 10:39:22 PM 40.9425 -106.9422 253° West 424 488 43,000  Level Denver Center
Wed 10:40:36 PM 40.9122 -107.0864 255° West 425 489 43,000  Level Denver Center
Wed 10:41:37 PM 40.8811 -107.2306 254° West 426 490 43,000  Level Denver Center
Wed 10:42:39 PM 40.8383 -107.4231 254° West 429 494 43,000  Level Denver Center
Wed 10:43:41 PM 40.8019 -107.5911 254° West 426 490 43,000  Level Denver Center
Wed 10:44:42 PM 40.7703 -107.7325 254° West 423 487 43,000  Level Denver Center
Wed 10:45:44 PM 40.7397 -107.8703 254° West 416 479 43,000  Level Denver Center
Wed 10:46:45 PM 40.7028 -108.0342 253° West 419 482 43,000  Level Denver Center
Wed 10:47:47 PM 40.6708 -108.1728 253° West 415 478 43,000  Level Denver Center
Wed 10:48:48 PM 40.6333 -108.3417 254° West 427 491 43,000  Level Denver Center
Wed 10:49:50 PM 40.6056 -108.4606 253° West 429 494 43,000  Level Denver Center
Wed 10:50:52 PM 40.5622 -108.6461 253° West 419 482 43,000  Level Denver Center
Wed 10:51:53 PM 40.5306 -108.7864 254° West 418 481 43,000  Level Denver Center
Wed 10:52:55 PM 40.4972 -108.9275 253° West 421 484 43,000  Level Denver Center
Wed 10:53:56 PM 40.4589 -109.0872 253° West 414 476 43,000  Level Denver Center
Wed 10:54:49 PM 40.4322 -109.2028 253° West 416 479 43,000  Level Salt Lake Center
Wed 10:55:51 PM 40.3928 -109.3642 252° West 417 480 43,000  Level Salt Lake Center
Wed 10:56:52 PM 40.3597 -109.5061 253° West 424 488 43,000  Level Salt Lake Center
Wed 10:57:54 PM 40.3200 -109.6686 252° West 422 486 43,000  Level Salt Lake Center
Wed 10:58:55 PM 40.2858 -109.8061 252° West 417 480 43,000  Level Salt Lake Center
Wed 10:59:57 PM 40.2467 -109.9697 253° West 422 486 43,000  Level Salt Lake Center
Wed 11:00:59 PM 40.2117 -110.1081 252° West 420 483 43,000  Level Salt Lake Center
Wed 11:02:00 PM 40.1767 -110.2492 252° West 424 488 43,000  Level Salt Lake Center
Wed 11:03:02 PM 40.1358 -110.4136 252° West 427 491 43,000  Level Salt Lake Center
Wed 11:04:03 PM 40.1006 -110.5544 252° West 428 493 43,000  Level Salt Lake Center
Wed 11:05:05 PM 40.0597 -110.7192 252° West 427 491 43,000  Level Salt Lake Center
Wed 11:06:06 PM 40.0242 -110.8586 252° West 424 488 43,000  Level Salt Lake Center
Wed 11:07:08 PM 39.9833 -111.0197 252° West 419 482 43,000  Level Salt Lake Center
Wed 11:08:09 PM 39.9467 -111.1569 251° West 418 481 43,000  Level Salt Lake Center
Wed 11:09:11 PM 39.9119 -111.2964 252° West 422 486 43,000  Level Salt Lake Center
Wed 11:10:12 PM 39.8697 -111.4564 251° West 419 482 43,000  Level Salt Lake Center
Wed 11:11:14 PM 39.8336 -111.5931 251° West 418 481 43,000  Level Salt Lake Center
Wed 11:12:15 PM 39.7958 -111.7397 252° West 422 486 43,000  Level Salt Lake Center
Wed 11:13:16 PM 39.7572 -111.8869 251° West 429 494 43,000  Level Salt Lake Center
Wed 11:14:18 PM 39.7178 -112.0353 251° West 433 498 43,000  Level Salt Lake Center
Wed 11:15:19 PM 39.6778 -112.1828 251° West 433 498 43,000  Level Salt Lake Center
Wed 11:16:21 PM 39.6306 -112.3583 251° West 431 496 43,000  Level Salt Lake Center
Wed 11:17:22 PM 39.5911 -112.5042 251° West 430 495 43,000  Level Salt Lake Center
Wed 11:18:24 PM 39.5469 -112.6478 248° West 430 495 43,000  Level Salt Lake Center
Wed 11:19:25 PM 39.5061 -112.7714 247° West 428 493 43,000  Level Salt Lake Center
Wed 11:20:26 PM 39.4497 -112.9456 247° West 438 504 43,000  Level Salt Lake Center
Wed 11:21:28 PM 39.4033 -113.0875 247° West 433 498 43,000  Level Salt Lake Center
Wed 11:22:29 PM 39.3569 -113.2306 247° West 434 499 43,000  Level Salt Lake Center
Wed 11:23:30 PM 39.3094 -113.3750 247° West 437 503 43,000  Level Salt Lake Center
Wed 11:24:32 PM 39.2611 -113.5203 247° West 442 509 43,000  Level Salt Lake Center
Wed 11:25:33 PM 39.2153 -113.6617 247° West 434 499 43,000  Level Salt Lake Center
Wed 11:26:34 PM 39.1669 -113.8044 246° West 435 501 43,000  Level Salt Lake Center
Wed 11:27:36 PM 39.1203 -113.9425 246° West 425 489 43,000  Level Salt Lake Center
Wed 11:28:37 PM 39.0664 -114.1044 247° West 414 476 43,000 49 Level Salt Lake Center
Wed 11:29:38 PM 39.0206 -114.2369 246° West 408 470 43,100  Climbing Salt Lake Center
Wed 11:30:39 PM 38.9756 -114.3706 247° West 409 471 43,000  Descending Salt Lake Center
Wed 11:31:41 PM 38.9297 -114.5039 246° West 408 470 43,100  Climbing Salt Lake Center
Wed 11:32:44 PM 38.8842 -114.6408 247° West 416 479 43,000 -49 Descending Salt Lake Center
Wed 11:33:43 PM 38.8375 -114.7756 246° West 415 478 43,000  Level Salt Lake Center
Wed 11:34:44 PM 38.7908 -114.9067 245° Southwest 409 471 43,000  Level Salt Lake Center
Wed 11:35:46 PM 38.7453 -115.0392 246° West 406 467 43,000  Level Salt Lake Center
Wed 11:36:47 PM 38.6961 -115.1753 245° Southwest 417 480 43,000  Level Salt Lake Center
Wed 11:37:48 PM 38.6394 -115.3347 246° West 415 478 43,000  Level Salt Lake Center
Wed 11:38:49 PM 38.6014 -115.4444 246° West 403 464 43,000  Level Salt Lake Center
Wed 11:39:51 PM 38.5464 -115.6008 246° West 403 464 43,000  Level Salt Lake Center
Wed 11:40:52 PM 38.4981 -115.7353 245° Southwest 414 476 43,000  Level Salt Lake Center
Wed 11:42:43 PM 38.4114 -115.9761 245° Southwest 415 478 43,000  Level Oakland Center
Wed 11:43:44 PM 38.3631 -116.1097 245° Southwest 414 476 43,000  Level Oakland Center
Wed 11:44:45 PM 38.3147 -116.2431 245° Southwest 414 476 43,000  Level Oakland Center
Wed 11:45:46 PM 38.2653 -116.3772 245° Southwest 418 481 43,000  Level Oakland Center
Wed 11:46:47 PM 38.2161 -116.5133 245° Southwest 423 487 43,000  Level Oakland Center
Wed 11:47:48 PM 38.1664 -116.6461 245° Southwest 419 482 43,000  Level Oakland Center
Wed 11:48:49 PM 38.1183 -116.7775 245° Southwest 411 473 43,000  Level Oakland Center
Wed 11:49:50 PM 38.0700 -116.9072 245° Southwest 405 466 43,000  Level Oakland Center
Wed 11:50:51 PM 38.0236 -117.0411 246° West 407 468 43,000  Level Oakland Center
Wed 11:51:52 PM 37.9756 -117.1769 246° West 412 474 43,000  Level Oakland Center
Wed 11:52:53 PM 37.9267 -117.3142 246° West 419 482 43,000 -295 Level Oakland Center
Wed 11:54:55 PM 37.8314 -117.5800 246° West 411 473 42,100 -656 Descending Oakland Center
Wed 11:55:56 PM 37.7828 -117.7150 246° West 418 481 41,000 -1,082 Descending Oakland Center
Wed 11:56:57 PM 37.7358 -117.8431 245° Southwest 405 466 39,900 -1,230 Descending Oakland Center
Wed 11:57:58 PM 37.6822 -117.9922 246° West 390 449 38,500 -1,180 Descending Oakland Center
Wed 11:58:59 PM 37.6364 -118.1158 245° Southwest 388 447 37,500 -1,033 Descending Oakland Center
Thu 12:00:00 AM 37.5903 -118.2422 245° Southwest 394 453 36,400 -1,082 Descending Oakland Center
Thu 12:01:01 AM 37.5422 -118.3758 246° West 415 478 35,300 -1,082 Descending Oakland Center
Thu 12:02:02 AM 37.4931 -118.5086 245° Southwest 418 481 34,200 -1,073 Descending Oakland Center
Thu 12:03:04 AM 37.4433 -118.6428 245° Southwest 421 484 33,100 -1,073 Descending Oakland Center
Thu 12:04:05 AM 37.3956 -118.7775 246° West 421 484 32,000 -1,082 Descending Oakland Center
Thu 12:05:06 AM 37.3750 -118.9292 260° West 438 504 30,900 -1,041 Descending Oakland Center
Thu 12:06:06 AM 37.3608 -119.0781 263° West 431 496 29,900 -1,140 Descending Oakland Center
Thu 12:07:07 AM 37.3461 -119.2311 263° West 441 507 28,600 -1,279 Descending Oakland Center
Thu 12:08:08 AM 37.3319 -119.3817 263° West 438 504 27,300 -1,279 Descending Oakland Center
Thu 12:09:09 AM 37.3144 -119.5281 261° West 427 491 26,000 -1,230 Descending Oakland Center
Thu 12:10:10 AM 37.2986 -119.6744 262° West 424 488 24,800 -1,317 Descending Oakland Center
Thu 12:11:12 AM 37.2792 -119.8472 262° West 419 482 23,300 -1,377 Descending Oakland Center
Thu 12:12:12 AM 37.2639 -119.9869 262° West 406 467 22,000 -1,488 Descending Oakland Center
Thu 12:13:13 AM 37.2481 -120.1239 262° West 395 455 20,300 -1,672 Descending Oakland Center
Thu 12:14:14 AM 37.2342 -120.2558 263° West 380 437 18,600 -1,623 Descending Oakland Center
Thu 12:15:15 AM 37.2192 -120.3847 262° West 376 433 17,000 -1,525 Descending Oakland Center
Thu 12:16:16 AM 37.1953 -120.5075 256° West 363 418 15,500 -1,525 Descending Oakland Center
Thu 12:17:17 AM 37.1694 -120.6272 255° West 357 411 13,900 -1,525 Descending Oakland Center
Thu 12:18:18 AM 37.1450 -120.7456 256° West 352 405 12,400 -1,279 Descending Oakland Center
Thu 12:19:19 AM 37.1203 -120.8606 255° West 342 394 11,300 -984 Descending Oakland Center
Thu 12:20:20 AM 37.0842 -120.9525 244° Southwest 299 344 10,400 -639 Descending Oakland Center
Thu 12:21:21 AM 37.0489 -121.0389 243° Southwest 280 322 10,000 -197 Descending Oakland Center
Thu 12:22:22 AM 37.0142 -121.1250 243° Southwest 278 320 10,000 -197 Level Oakland Center
Thu 12:23:23 AM 36.9825 -121.2158 246° West 274 315 9,600 -836 Descending Oakland Center
Thu 12:24:24 AM 37.0097 -121.3044 291° West 272 313 8,300 -836 Descending Oakland Center
Thu 12:25:25 AM 37.0433 -121.3889 297° West 272 313 7,900 -787 Descending Oakland Center
Thu 12:26:26 AM 37.0742 -121.4719 295° West 265 305 6,700 -1,328 Descending Oakland Center
Thu 12:27:27 AM 37.1039 -121.5517 295° West 256 295 5,200 -885 Descending Oakland Center
Thu 12:28:28 AM 37.1344 -121.6336 295° West 219 252 4,900 -148 Descending Oakland Center
Thu 12:29:29 AM 37.1561 -121.6928 295° West 195 224 4,900 -197 Level Oakland Center
Thu 12:30:30 AM 37.1869 -121.7411 309° West 186 214 4,500 -689 Descending Oakland Center
Thu 12:31:31 AM 37.2253 -121.7819 320° Northwest 182 209 3,500 -934 Descending Oakland Center
Thu 12:32:32 AM 37.2628 -121.8197 321° Northwest 178 205 2,600 -934 Descending Oakland Center
Thu 12:33:33 AM 37.2967 -121.8547 321° Northwest 169 194 1,600 -787 Descending Oakland Center
Thu 12:34:34 AM 37.3231 -121.8839 319° Northwest 145 167 1,000 -639 Descending Oakland Center
Thu 12:35:35 AM 37.3483 -121.9111 319° Northwest 131 151 300 -689 Descending Oakland Center
Thu 12:37:00 AM 37.3500 -121.9167 North  Level FlightAware Approximate
Thu 12:44:00 AM 37.3627 -121.9291 North  Level Estimated

Login

Don't have an account? Register now (free) for customized features, flight alerts, and more!